Time;durP1;ratioP1;P1;durP2;ratioP2;P2;SDS_P1;SDS_P2;PMS_P1;PMS_P2;Temp;Humidity;BMP_temperature;BMP_pressure;BME280_temperature;BME280_humidity;BME280_pressure;Samples;Min_cycle;Max_cycle;Signal;HPM_P1;HPM_P2
2022/08/24 00:02:10;;;;;;;6.30;2.05;;;19.70;99.90;;;;;;5072095;28;20031;-55
2022/08/24 00:04:36;;;;;;;5.32;2.00;;;19.70;99.90;;;;;;5071858;28;20028;-58
2022/08/24 00:07:03;;;;;;;4.68;1.70;;;19.80;99.90;;;;;;5071730;28;20028;-48
2022/08/24 00:09:31;;;;;;;5.18;1.73;;;19.80;99.90;;;;;;5071292;28;20070;-49
2022/08/24 00:11:56;;;;;;;4.25;1.63;;;19.80;99.90;;;;;;5071578;28;20021;-45
2022/08/24 00:14:23;;;;;;;4.47;2.22;;;19.80;99.90;;;;;;5054294;28;20391;-51
2022/08/24 00:16:48;;;;;;;3.53;2.10;;;19.80;99.90;;;;;;5069302;28;20067;-52
2022/08/24 00:19:15;;;;;;;10.65;2.28;;;19.80;99.90;;;;;;5058692;28;20056;-52
2022/08/24 00:21:41;;;;;;;4.22;1.83;;;19.70;99.90;;;;;;5068504;28;20028;-50
2022/08/24 00:24:07;;;;;;;3.03;2.05;;;19.70;99.90;;;;;;5071538;28;20074;-48
2022/08/24 00:26:34;;;;;;;4.85;2.25;;;19.60;99.90;;;;;;5071236;28;20139;-54
2022/08/24 00:29:00;;;;;;;6.00;2.25;;;19.60;99.90;;;;;;5071556;28;20051;-50
2022/08/24 00:31:26;;;;;;;5.40;2.17;;;19.60;99.90;;;;;;5057285;28;20029;-48
2022/08/24 00:33:52;;;;;;;4.03;2.00;;;19.50;99.90;;;;;;5070693;28;20473;-48
2022/08/24 00:36:19;;;;;;;4.40;2.03;;;19.60;99.90;;;;;;5071345;28;20032;-50
2022/08/24 00:38:45;;;;;;;5.68;2.28;;;19.60;99.90;;;;;;5070823;28;20036;-52
2022/08/24 00:41:13;;;;;;;5.55;2.00;;;19.60;99.90;;;;;;5071031;28;20478;-48
2022/08/24 00:43:49;;;;;;;5.70;2.10;;;19.60;99.90;;;;;;5071202;28;20024;-48
2022/08/24 00:46:21;;;;;;;5.50;2.08;;;19.60;99.90;;;;;;5071007;28;20037;-51
2022/08/24 00:48:53;;;;;;;4.30;2.08;;;19.60;99.90;;;;;;5070886;28;20047;-54
2022/08/24 00:51:35;;;;;;;4.93;2.08;;;19.70;99.90;;;;;;5070920;28;20020;-55
2022/08/24 00:54:11;;;;;;;4.35;2.40;;;19.70;99.90;;;;;;5067576;28;20036;-50
2022/08/24 00:56:41;;;;;;;8.10;2.30;;;19.70;99.90;;;;;;5070208;28;20059;-51
2022/08/24 00:59:18;;;;;;;6.70;2.20;;;19.70;99.90;;;;;;5070095;28;20032;-46
2022/08/24 01:01:44;;;;;;;5.20;2.47;;;19.80;99.90;;;;;;5070320;28;20097;-50
2022/08/24 01:04:17;;;;;;;4.40;2.30;;;19.70;99.90;;;;;;5070830;28;20032;-49
2022/08/24 01:06:44;;;;;;;4.80;2.70;;;19.70;99.90;;;;;;5070940;28;20027;-53
2022/08/24 01:09:09;;;;;;;5.47;2.30;;;19.70;99.90;;;;;;5070651;28;20461;-47
2022/08/24 01:11:35;;;;;;;7.15;2.72;;;19.70;99.90;;;;;;5070316;28;20100;-51
2022/08/24 01:14:03;;;;;;;4.78;2.30;;;19.60;99.90;;;;;;5070771;28;20135;-48
2022/08/24 01:19:28;;;;;;;4.65;1.90;;;19.60;99.90;;;;;;5070187;28;20035;-48
2022/08/24 01:22:00;;;;;;;5.53;1.80;;;19.60;99.90;;;;;;5069193;28;20025;-47
2022/08/24 01:24:26;;;;;;;3.55;1.70;;;19.50;99.90;;;;;;5070655;28;20429;-48
2022/08/24 01:26:52;;;;;;;5.43;2.20;;;19.50;99.90;;;;;;5070366;28;20070;-51
2022/08/24 01:29:30;;;;;;;4.30;1.90;;;19.40;99.90;;;;;;5070592;28;20016;-46
2022/08/24 01:31:56;;;;;;;4.20;2.20;;;19.40;99.90;;;;;;5067850;28;20017;-50
2022/08/24 01:34:22;;;;;;;4.70;2.17;;;19.40;99.90;;;;;;5070607;28;20025;-51
2022/08/24 01:36:50;;;;;;;4.78;2.15;;;19.40;99.90;;;;;;5070312;28;20107;-46
2022/08/24 01:39:36;;;;;;;8.32;2.60;;;19.40;99.90;;;;;;5070420;28;20033;-53
2022/08/24 01:42:03;;;;;;;5.57;2.30;;;19.40;99.90;;;;;;5069799;28;20033;-49
2022/08/24 01:44:35;;;;;;;4.32;2.45;;;19.40;99.90;;;;;;5070100;28;20043;-47
2022/08/24 01:47:03;;;;;;;6.68;2.67;;;19.40;99.90;;;;;;5070316;28;20380;-48
2022/08/24 01:49:33;;;;;;;4.68;2.25;;;19.40;99.90;;;;;;5070432;28;20024;-48
2022/08/24 01:51:58;;;;;;;4.82;2.10;;;19.50;99.90;;;;;;5070260;28;20268;-49
2022/08/24 01:54:25;;;;;;;4.43;2.20;;;19.50;99.90;;;;;;5070367;28;20508;-53
2022/08/24 01:56:51;;;;;;;6.43;2.47;;;19.40;99.90;;;;;;5066909;28;20046;-49
2022/08/24 01:59:19;;;;;;;7.07;2.78;;;19.40;99.90;;;;;;5070416;28;20033;-46
2022/08/24 02:02:00;;;;;;;6.05;2.40;;;19.40;99.90;;;;;;5069683;28;20028;-54
2022/08/24 02:04:25;;;;;;;7.10;2.63;;;19.40;99.90;;;;;;5071245;28;20063;-50
2022/08/24 02:06:52;;;;;;;5.63;2.17;;;19.40;99.90;;;;;;5074337;28;20070;-50
2022/08/24 02:09:18;;;;;;;6.15;2.88;;;19.40;99.90;;;;;;5074367;28;20464;-47
2022/08/24 02:11:45;;;;;;;7.00;2.75;;;19.30;99.90;;;;;;5065912;28;20028;-49
2022/08/24 02:14:11;;;;;;;6.35;2.70;;;19.30;99.90;;;;;;5073855;28;20032;-51
2022/08/24 02:16:37;;;;;;;6.60;2.85;;;19.30;99.90;;;;;;5073756;28;20017;-47
2022/08/24 02:19:03;;;;;;;6.43;2.70;;;19.30;99.90;;;;;;5074175;28;20036;-54
2022/08/24 02:21:29;;;;;;;5.38;2.67;;;19.20;99.90;;;;;;5073825;28;20027;-50
2022/08/24 02:23:54;;;;;;;5.53;2.85;;;19.20;99.90;;;;;;5073950;28;20028;-48
2022/08/24 02:26:20;;;;;;;9.20;3.63;;;19.20;99.90;;;;;;5073789;28;20052;-50
2022/08/24 02:28:46;;;;;;;4.13;2.70;;;19.20;99.90;;;;;;5073837;28;20367;-50
2022/08/24 02:31:13;;;;;;;6.03;2.90;;;19.20;99.90;;;;;;5073965;28;20364;-48
2022/08/24 02:33:39;;;;;;;7.47;2.90;;;19.20;99.90;;;;;;5073818;28;20016;-50
2022/08/24 02:36:07;;;;;;;6.65;2.80;;;19.20;99.90;;;;;;5074038;28;20035;-46
2022/08/24 02:38:32;;;;;;;8.38;3.20;;;19.20;99.90;;;;;;5069836;28;20036;-51
2022/08/24 02:40:59;;;;;;;7.55;3.25;;;19.20;99.90;;;;;;5073645;28;20214;-53
2022/08/24 02:43:25;;;;;;;5.38;2.97;;;19.10;99.90;;;;;;5073831;28;20024;-52
2022/08/24 02:45:51;;;;;;;8.90;3.28;;;19.20;99.90;;;;;;5073684;28;20387;-51
2022/08/24 02:48:17;;;;;;;9.23;3.92;;;19.20;99.90;;;;;;5073729;28;20502;-48
2022/08/24 02:50:46;;;;;;;8.00;3.65;;;19.10;99.90;;;;;;5073580;28;20020;-49
2022/08/24 02:53:13;;;;;;;7.40;3.83;;;19.20;99.90;;;;;;5073725;28;20041;-49
2022/08/24 02:55:40;;;;;;;6.43;3.40;;;19.20;99.90;;;;;;5073567;28;20025;-53
2022/08/24 02:58:08;;;;;;;10.18;3.60;;;19.20;99.90;;;;;;5073393;28;20506;-48
2022/08/24 03:00:37;;;;;;;9.13;4.18;;;19.20;99.90;;;;;;5073536;28;20031;-50
2022/08/24 03:03:05;;;;;;;10.13;3.55;;;19.30;99.90;;;;;;5073293;28;20094;-46
2022/08/24 03:05:31;;;;;;;6.57;3.15;;;19.20;99.90;;;;;;5073429;28;20039;-49
2022/08/24 03:07:57;;;;;;;6.85;2.90;;;19.30;99.90;;;;;;5073302;28;20028;-53
2022/08/24 03:10:23;;;;;;;7.22;3.25;;;19.20;99.90;;;;;;5073225;28;20023;-49
2022/08/24 03:12:49;;;;;;;5.95;3.22;;;19.30;99.90;;;;;;5072049;28;20058;-46
2022/08/24 03:15:15;;;;;;;5.65;2.70;;;19.20;99.90;;;;;;5071705;28;20017;-46
2022/08/24 03:17:42;;;;;;;9.63;3.10;;;19.20;99.90;;;;;;5072875;28;20024;-48
2022/08/24 03:20:13;;;;;;;7.63;3.25;;;19.30;99.90;;;;;;5073192;28;20467;-48
2022/08/24 03:22:40;;;;;;;6.72;3.00;;;19.20;99.90;;;;;;5072888;28;20078;-46
2022/08/24 03:25:07;;;;;;;6.93;3.10;;;19.30;99.90;;;;;;5072841;28;20085;-47
2022/08/24 03:27:33;;;;;;;7.35;2.65;;;19.30;99.90;;;;;;5072965;28;20466;-48
2022/08/24 03:30:00;;;;;;;6.38;2.65;;;19.30;99.90;;;;;;5072870;28;20141;-51
2022/08/24 03:32:26;;;;;;;7.97;3.22;;;19.30;99.90;;;;;;5073004;28;20013;-53
2022/08/24 03:34:53;;;;;;;7.57;3.05;;;19.30;99.90;;;;;;5072833;28;20032;-49
2022/08/24 03:37:19;;;;;;;6.95;2.90;;;19.30;99.90;;;;;;5071353;28;20550;-54
2022/08/24 03:39:46;;;;;;;8.55;3.00;;;19.30;99.90;;;;;;5072729;28;20375;-47
2022/08/24 03:42:13;;;;;;;6.95;2.60;;;19.30;99.90;;;;;;5072647;28;20023;-49
2022/08/24 03:44:40;;;;;;;5.00;2.45;;;19.20;99.90;;;;;;5072625;28;20467;-56
2022/08/24 03:47:07;;;;;;;6.45;2.72;;;19.30;99.90;;;;;;5072275;28;20047;-49
2022/08/24 03:49:33;;;;;;;5.65;2.33;;;19.30;99.90;;;;;;5071388;28;20514;-50
2022/08/24 03:51:59;;;;;;;4.70;2.50;;;19.30;99.90;;;;;;5072473;28;20024;-53
2022/08/24 03:54:24;;;;;;;3.63;2.30;;;19.30;99.90;;;;;;5072315;28;20050;-47
2022/08/24 03:56:50;;;;;;;5.00;2.60;;;19.30;99.90;;;;;;5072618;28;20086;-45
2022/08/24 03:59:16;;;;;;;5.70;2.63;;;19.30;99.90;;;;;;5072280;28;20028;-46
2022/08/24 04:01:42;;;;;;;6.18;3.25;;;19.30;99.90;;;;;;5068182;28;20438;-48
2022/08/24 04:04:07;;;;;;;5.22;2.80;;;19.30;99.90;;;;;;5072015;28;20028;-52
2022/08/24 04:06:33;;;;;;;4.93;2.70;;;19.30;99.90;;;;;;5062764;28;20025;-47
2022/08/24 04:08:59;;;;;;;5.60;2.55;;;19.30;99.90;;;;;;5070951;28;20086;-52
2022/08/24 04:11:27;;;;;;;4.95;2.90;;;19.30;99.90;;;;;;5071927;28;20437;-51
2022/08/24 04:13:55;;;;;;;7.95;3.30;;;19.20;99.90;;;;;;5063869;28;20548;-50
2022/08/24 04:16:22;;;;;;;6.80;3.10;;;19.30;99.90;;;;;;5072512;28;20020;-48
2022/08/24 04:18:48;;;;;;;4.55;2.40;;;19.30;99.90;;;;;;5065229;28;20524;-46
2022/08/24 04:21:15;;;;;;;5.40;2.70;;;19.30;99.90;;;;;;5065558;28;20382;-47
2022/08/24 04:23:41;;;;;;;8.27;2.97;;;19.30;99.90;;;;;;5060429;28;20021;-50
2022/08/24 04:26:07;;;;;;;4.68;2.58;;;19.30;99.90;;;;;;5066991;28;20028;-51
2022/08/24 04:28:33;;;;;;;4.68;2.90;;;19.30;99.90;;;;;;5067947;28;20029;-48
2022/08/24 04:30:59;;;;;;;6.07;3.10;;;19.30;99.90;;;;;;5062850;28;20036;-52
2022/08/24 04:33:25;;;;;;;6.80;2.97;;;19.20;99.90;;;;;;5062608;28;20081;-49
2022/08/24 04:35:50;;;;;;;8.43;3.85;;;19.20;99.90;;;;;;5069133;28;20692;-50
2022/08/24 04:38:18;;;;;;;6.28;3.25;;;19.20;99.90;;;;;;5066826;28;20074;-55
2022/08/24 04:40:45;;;;;;;8.73;3.33;;;19.20;99.90;;;;;;5070905;28;20365;-51
2022/08/24 04:43:13;;;;;;;10.10;3.60;;;19.20;99.90;;;;;;5070802;28;20121;-51
2022/08/24 04:45:45;;;;;;;8.23;3.35;;;19.10;99.90;;;;;;5070390;28;20494;-52
2022/08/24 04:48:14;;;;;;;6.55;3.53;;;19.10;99.90;;;;;;5070751;28;20071;-49
2022/08/24 04:50:42;;;;;;;8.02;3.80;;;19.10;99.90;;;;;;5067385;28;20157;-50
2022/08/24 04:53:10;;;;;;;6.95;3.90;;;19.20;99.90;;;;;;5069756;28;20036;-52
2022/08/24 04:55:45;;;;;;;14.73;4.45;;;19.10;99.90;;;;;;5065525;28;20029;-46
2022/08/24 04:58:12;;;;;;;6.35;3.90;;;19.10;99.90;;;;;;5067229;28;20040;-50
2022/08/24 05:00:38;;;;;;;10.30;4.43;;;19.20;99.90;;;;;;5062020;28;20059;-47
2022/08/24 05:03:04;;;;;;;7.10;3.90;;;19.10;99.90;;;;;;5069967;28;20039;-48
2022/08/24 05:05:30;;;;;;;8.23;4.05;;;19.10;99.90;;;;;;5070841;28;20025;-52
2022/08/24 05:07:56;;;;;;;10.68;5.05;;;19.10;99.90;;;;;;5069834;28;20020;-52
2022/08/24 05:10:21;;;;;;;9.77;4.15;;;19.10;99.90;;;;;;5070669;28;20051;-54
2022/08/24 05:12:47;;;;;;;8.75;4.25;;;19.10;99.90;;;;;;5069764;28;20096;-47
2022/08/24 05:15:15;;;;;;;8.77;4.22;;;19.10;99.90;;;;;;5068601;28;20036;-48
2022/08/24 05:17:41;;;;;;;11.18;4.68;;;19.10;99.90;;;;;;5063239;28;20036;-50
2022/08/24 05:20:10;;;;;;;7.32;4.68;;;19.10;99.90;;;;;;5068491;28;20025;-51
2022/08/24 05:22:36;;;;;;;9.75;4.13;;;19.10;99.90;;;;;;5068907;28;20034;-51
2022/08/24 05:25:03;;;;;;;10.43;4.75;;;19.10;99.90;;;;;;5068546;28;20020;-46
2022/08/24 05:27:29;;;;;;;8.48;5.22;;;19.10;99.90;;;;;;5067966;28;20070;-53
2022/08/24 05:29:55;;;;;;;10.65;4.90;;;19.20;99.90;;;;;;5066851;28;20036;-54
2022/08/24 05:32:21;;;;;;;10.73;4.95;;;19.20;99.90;;;;;;5070557;28;20070;-48
2022/08/24 05:34:47;;;;;;;9.95;5.18;;;19.20;99.90;;;;;;5069014;28;20024;-48
2022/08/24 05:37:13;;;;;;;10.52;5.45;;;19.20;99.90;;;;;;5070489;28;20036;-53
2022/08/24 05:39:38;;;;;;;11.45;5.40;;;19.20;99.90;;;;;;5070913;28;20082;-53
2022/08/24 05:42:04;;;;;;;11.07;5.43;;;19.20;99.90;;;;;;5074176;28;20028;-48
2022/08/24 05:44:30;;;;;;;10.85;5.75;;;19.20;99.90;;;;;;5072074;28;20476;-48
2022/08/24 05:46:57;;;;;;;14.98;6.90;;;19.20;99.90;;;;;;5074353;28;20056;-49
2022/08/24 05:49:26;;;;;;;9.93;5.68;;;19.20;99.90;;;;;;5072321;28;20527;-50
2022/08/24 05:51:52;;;;;;;12.60;6.13;;;19.20;99.90;;;;;;5074089;28;20021;-58
2022/08/24 05:54:18;;;;;;;10.48;5.95;;;19.20;99.90;;;;;;5074575;28;20058;-52
2022/08/24 05:56:44;;;;;;;13.30;6.65;;;19.20;99.90;;;;;;5065275;28;20090;-51
2022/08/24 05:59:10;;;;;;;12.93;6.28;;;19.20;99.90;;;;;;5056186;28;20128;-51
2022/08/24 06:01:37;;;;;;;13.30;6.68;;;19.20;99.90;;;;;;5067607;28;20017;-54
2022/08/24 06:04:03;;;;;;;11.48;6.13;;;19.20;99.90;;;;;;5072482;28;20020;-49
2022/08/24 06:06:30;;;;;;;14.30;7.68;;;19.20;99.90;;;;;;5072725;28;20091;-52
2022/08/24 06:08:58;;;;;;;13.02;7.10;;;19.20;99.90;;;;;;5072820;28;20041;-53
2022/08/24 06:11:27;;;;;;;17.00;7.25;;;19.30;99.90;;;;;;5071449;28;20115;-55
2022/08/24 06:13:56;;;;;;;12.10;7.18;;;19.30;99.90;;;;;;5073065;28;20024;-49
2022/08/24 06:16:22;;;;;;;14.07;7.88;;;19.40;99.90;;;;;;5073538;28;20032;-47
2022/08/24 06:18:49;;;;;;;15.27;7.32;;;19.50;99.90;;;;;;5073501;28;20036;-47
2022/08/24 06:21:19;;;;;;;13.52;7.60;;;19.60;99.90;;;;;;5073475;28;20063;-51
2022/08/24 06:23:45;;;;;;;14.27;7.55;;;19.60;99.90;;;;;;5074114;28;20103;-56
2022/08/24 06:28:59;;;;;;;13.77;6.53;;;19.70;99.90;;;;;;5068102;28;20151;-51
2022/08/24 06:31:26;;;;;;;11.95;6.35;;;19.80;99.90;;;;;;5067376;28;20031;-49
2022/08/24 06:33:52;;;;;;;12.02;7.00;;;20.00;99.90;;;;;;5073958;28;20040;-49
2022/08/24 06:36:18;;;;;;;13.88;7.63;;;20.00;99.90;;;;;;5072904;28;20024;-48
2022/08/24 06:38:43;;;;;;;13.52;6.32;;;20.10;99.90;;;;;;5072880;28;20163;-52
2022/08/24 06:41:09;;;;;;;11.95;6.13;;;20.20;99.90;;;;;;5073527;28;20032;-49
2022/08/24 06:43:36;;;;;;;13.10;6.13;;;20.30;99.90;;;;;;5073442;28;20036;-48
2022/08/24 06:46:02;;;;;;;12.02;6.25;;;20.40;99.90;;;;;;5073361;28;20040;-47
2022/08/24 06:48:29;;;;;;;12.27;7.13;;;20.30;99.90;;;;;;5073417;28;20507;-55
2022/08/24 06:50:56;;;;;;;16.17;7.47;;;20.40;99.90;;;;;;5073191;28;20021;-49
2022/08/24 06:53:22;;;;;;;14.95;6.90;;;20.40;99.90;;;;;;5073311;28;20028;-45
2022/08/24 06:55:53;;;;;;;14.55;7.63;;;20.40;99.90;;;;;;5073282;28;20379;-52
2022/08/24 06:58:20;;;;;;;11.35;7.95;;;20.40;99.90;;;;;;5073246;28;20032;-50
2022/08/24 07:00:46;;;;;;;17.20;9.88;;;20.40;99.90;;;;;;5073041;28;20021;-48
2022/08/24 07:03:13;;;;;;;15.48;7.85;;;20.50;99.90;;;;;;5073111;28;20036;-46
2022/08/24 07:05:39;;;;;;;14.25;8.13;;;20.70;99.90;;;;;;5072454;28;20529;-45
2022/08/24 07:08:06;;;;;;;15.40;8.30;;;20.70;99.90;;;;;;5073199;28;20051;-45
2022/08/24 07:10:32;;;;;;;13.30;7.15;;;20.80;99.90;;;;;;5072917;28;20024;-53
2022/08/24 07:12:57;;;;;;;11.30;5.68;;;20.80;99.90;;;;;;5072767;28;20044;-45
2022/08/24 07:15:23;;;;;;;13.43;6.45;;;21.00;99.90;;;;;;5072396;28;20454;-56
2022/08/24 07:17:50;;;;;;;12.20;5.70;;;21.10;99.90;;;;;;5070765;28;20059;-49
2022/08/24 07:20:16;;;;;;;10.20;5.35;;;21.20;99.90;;;;;;5071266;28;20044;-49
2022/08/24 07:22:43;;;;;;;9.40;5.20;;;21.50;99.90;;;;;;5069437;28;20020;-52
2022/08/24 07:25:10;;;;;;;8.20;4.75;;;21.80;99.90;;;;;;5072635;28;20029;-47
2022/08/24 07:27:36;;;;;;;9.90;4.88;;;22.10;99.90;;;;;;5072516;28;20471;-47
2022/08/24 07:30:01;;;;;;;13.65;5.20;;;22.50;99.90;;;;;;5072494;28;20020;-51
2022/08/24 07:32:27;;;;;;;11.27;5.45;;;22.90;99.90;;;;;;5072601;28;20107;-52
2022/08/24 07:34:53;;;;;;;9.93;5.07;;;23.00;99.90;;;;;;5072301;28;20016;-48
2022/08/24 07:37:19;;;;;;;8.77;4.60;;;23.00;99.90;;;;;;5072318;28;20029;-48
2022/08/24 07:39:45;;;;;;;8.38;4.72;;;23.00;99.90;;;;;;5072320;28;20058;-49
2022/08/24 07:42:11;;;;;;;7.82;4.22;;;23.00;99.90;;;;;;5071826;28;20035;-49
2022/08/24 07:44:37;;;;;;;7.55;4.30;;;22.80;99.90;;;;;;5072483;28;20035;-51
2022/08/24 07:47:04;;;;;;;6.70;3.88;;;22.90;99.90;;;;;;5058247;28;20033;-46
2022/08/24 07:49:30;;;;;;;7.85;3.85;;;23.10;99.90;;;;;;5068973;28;20028;-50
2022/08/24 07:51:56;;;;;;;5.72;3.80;;;23.10;99.90;;;;;;5071958;28;20028;-50
2022/08/24 07:54:22;;;;;;;7.30;3.25;;;23.50;99.90;;;;;;5071741;28;20101;-48
2022/08/24 07:56:49;;;;;;;7.35;3.42;;;24.50;99.90;;;;;;5072002;28;20021;-50
2022/08/24 07:59:15;;;;;;;5.28;3.20;;;25.30;99.90;;;;;;5071553;28;20028;-50
2022/08/24 08:01:41;;;;;;;7.25;3.30;;;25.80;99.90;;;;;;5071176;28;20044;-48
2022/08/24 08:04:08;;;;;;;5.72;3.20;;;25.60;99.90;;;;;;5072046;28;20103;-51
2022/08/24 08:06:34;;;;;;;6.25;3.35;;;25.40;99.90;;;;;;5071815;28;20031;-51
2022/08/24 08:09:01;;;;;;;7.28;2.92;;;25.10;99.90;;;;;;5069029;28;20051;-54
2022/08/24 08:11:27;;;;;;;6.00;2.65;;;24.90;99.90;;;;;;5065637;28;20174;-49
2022/08/24 08:13:53;;;;;;;4.93;2.35;;;24.60;99.90;;;;;;5060323;28;20068;-49
2022/08/24 08:16:20;;;;;;;4.70;1.80;;;24.40;99.90;;;;;;5069252;28;20107;-49
2022/08/24 08:18:46;;;;;;;4.95;1.90;;;24.10;99.90;;;;;;5071266;28;20044;-52
2022/08/24 08:24:15;;;;;;;3.38;1.70;;;23.50;99.90;;;;;;5068200;28;20082;-50
2022/08/24 08:26:41;;;;;;;5.25;1.98;;;23.20;99.90;;;;;;5071179;28;20078;-45
2022/08/24 08:29:09;;;;;;;5.20;1.60;;;23.00;99.90;;;;;;5071100;28;20055;-51
2022/08/24 08:31:36;;;;;;;4.70;1.75;;;22.80;99.90;;;;;;5070754;28;20389;-49
2022/08/24 08:34:02;;;;;;;3.17;1.50;;;22.80;99.90;;;;;;5071527;28;20024;-54
2022/08/24 08:36:28;;;;;;;4.63;1.50;;;22.80;99.90;;;;;;5071202;28;20021;-48
2022/08/24 08:38:54;;;;;;;5.93;1.38;;;22.70;99.90;;;;;;5058036;28;20094;-53
2022/08/24 08:41:26;;;;;;;5.05;1.60;;;22.90;99.90;;;;;;5071563;28;20035;-50
2022/08/24 08:44:04;;;;;;;3.65;1.40;;;23.00;99.90;;;;;;5071504;28;20092;-51
2022/08/24 08:46:49;;;;;;;3.22;1.70;;;23.30;99.90;;;;;;5071454;28;20043;-49
2022/08/24 08:49:24;;;;;;;4.72;1.65;;;23.50;99.90;;;;;;5070918;28;20056;-51
2022/08/24 08:52:06;;;;;;;3.75;1.35;;;23.60;99.90;;;;;;5071057;28;20102;-46
2022/08/24 08:55:10;;;;;;;3.90;1.50;;;23.80;99.90;;;;;;5071131;28;20419;-44
2022/08/24 08:57:45;;;;;;;6.10;1.40;;;24.10;99.90;;;;;;5028049;28;20026;-56
2022/08/24 09:00:10;;;;;;;3.03;1.13;;;24.10;99.90;;;;;;5028235;28;20033;-54
2022/08/24 09:03:08;;;;;;;2.58;1.35;;;24.10;99.90;;;;;;5049803;28;20043;-47
2022/08/24 09:05:52;;;;;;;3.92;1.20;;;24.00;99.90;;;;;;5045721;28;20041;-50
2022/08/24 09:08:48;;;;;;;4.15;1.10;;;23.90;99.90;;;;;;5071104;28;20032;-52
2022/08/24 09:11:26;;;;;;;2.95;1.20;;;24.00;99.90;;;;;;5059630;28;20036;-53
2022/08/24 09:13:54;;;;;;;4.35;1.27;;;24.00;99.90;;;;;;5069895;28;20027;-52
2022/08/24 09:16:27;;;;;;;3.45;1.20;;;23.90;99.90;;;;;;5070862;28;20029;-47
2022/08/24 09:19:11;;;;;;;3.30;1.13;;;23.70;99.90;;;;;;5070797;28;20230;-54
2022/08/24 09:22:00;;;;;;;2.97;1.40;;;23.60;99.90;;;;;;5071113;28;20498;-49
2022/08/24 09:24:35;;;;;;;5.00;3.05;;;23.60;99.90;;;;;;5071210;28;20033;-51
2022/08/24 09:27:50;;;;;;;3.30;1.23;;;23.60;99.90;;;;;;5070954;28;20082;-54
2022/08/24 09:30:24;;;;;;;2.63;0.90;;;23.70;99.90;;;;;;5050339;28;20123;-48
2022/08/24 09:33:11;;;;;;;2.55;0.95;;;23.90;99.90;;;;;;5070948;28;20028;-49
2022/08/24 09:35:58;;;;;;;2.00;0.95;;;24.20;99.90;;;;;;5069946;28;20020;-44
2022/08/24 09:38:55;;;;;;;3.42;0.98;;;24.20;99.90;;;;;;5067155;28;20032;-52
2022/08/24 09:41:44;;;;;;;3.53;1.08;;;24.40;99.90;;;;;;5063287;28;20082;-49
2022/08/24 09:44:25;;;;;;;2.45;1.00;;;24.70;99.90;;;;;;5068656;28;20105;-47
2022/08/24 09:47:15;;;;;;;4.75;1.23;;;24.60;99.90;;;;;;5068819;28;20125;-45
2022/08/24 09:49:55;;;;;;;2.05;0.90;;;24.70;99.90;;;;;;5070384;28;20043;-45
2022/08/24 09:52:52;;;;;;;1.30;0.80;;;24.80;99.90;;;;;;5070365;28;20099;-52
2022/08/24 09:55:58;;;;;;;2.28;0.85;;;25.60;99.90;;;;;;5065211;28;20033;-48
2022/08/24 09:58:57;;;;;;;2.03;0.90;;;26.30;99.90;;;;;;5030394;28;20033;-46
2022/08/24 10:01:33;;;;;;;2.00;1.20;;;26.40;99.90;;;;;;5070588;28;20392;-51
2022/08/24 10:04:13;;;;;;;2.75;1.13;;;26.50;99.90;;;;;;5070279;28;20100;-49
2022/08/24 10:07:01;;;;;;;4.10;1.20;;;26.80;99.90;;;;;;5064829;28;20111;-49
2022/08/24 10:09:49;;;;;;;3.20;2.30;;;27.70;99.20;;;;;;5068409;28;20028;-47
2022/08/24 10:12:20;;;;;;;3.65;2.40;;;28.20;98.90;;;;;;5070740;28;20090;-45
2022/08/24 10:14:56;;;;;;;3.72;2.35;;;28.20;97.10;;;;;;5070573;28;20024;-47
2022/08/24 10:17:53;;;;;;;3.30;2.30;;;28.00;97.40;;;;;;5070172;28;20141;-43
2022/08/24 10:20:25;;;;;;;5.07;2.10;;;27.70;97.40;;;;;;5070375;28;20028;-40
2022/08/24 10:23:38;;;;;;;4.03;2.40;;;27.80;98.60;;;;;;5065405;28;20032;-47
2022/08/24 10:26:06;;;;;;;3.63;2.28;;;27.80;98.20;;;;;;5052083;28;20048;-46
2022/08/24 10:28:50;;;;;;;6.68;2.38;;;27.60;97.50;;;;;;5073969;28;20024;-45
2022/08/24 10:31:30;;;;;;;4.47;2.25;;;27.40;97.50;;;;;;5074093;28;20020;-48
2022/08/24 10:34:24;;;;;;;4.38;2.30;;;27.20;99.80;;;;;;5073718;28;20025;-49
2022/08/24 10:37:17;;;;;;;3.53;2.45;;;27.50;99.30;;;;;;5073988;28;20016;-48
2022/08/24 10:39:55;;;;;;;3.85;2.03;;;28.10;97.00;;;;;;5067581;28;20391;-47
2022/08/24 10:46:00;;;;;;;4.30;2.42;;;28.30;96.80;;;;;;5060419;28;20027;-51
2022/08/24 10:48:26;;;;;;;3.17;2.08;;;27.90;98.20;;;;;;5073484;28;20442;-46
2022/08/24 10:51:07;;;;;;;2.53;1.83;;;28.70;98.50;;;;;;5073609;28;20165;-47
2022/08/24 10:53:33;;;;;;;3.45;2.00;;;29.60;96.40;;;;;;5068892;28;20216;-53
2022/08/24 10:56:12;;;;;;;2.30;1.85;;;30.40;94.30;;;;;;5072280;28;20093;-50
2022/08/24 10:58:51;;;;;;;3.17;1.67;;;30.50;93.90;;;;;;5068586;28;20036;-47
2022/08/24 11:01:19;;;;;;;2.95;1.65;;;31.20;93.60;;;;;;5073789;28;20047;-40
2022/08/24 11:04:08;;;;;;;2.28;1.40;;;31.00;92.20;;;;;;5073562;28;20028;-49
2022/08/24 11:06:40;;;;;;;1.75;1.20;;;29.90;92.50;;;;;;5073500;28;20135;-48
2022/08/24 11:09:15;;;;;;;2.10;1.63;;;29.20;93.90;;;;;;5073282;28;20016;-44
2022/08/24 11:11:45;;;;;;;2.17;1.70;;;28.70;95.00;;;;;;5073212;28;20032;-44
2022/08/24 11:14:27;;;;;;;2.72;1.60;;;28.90;94.90;;;;;;5073558;28;20023;-43
2022/08/24 11:17:31;;;;;;;3.40;2.20;;;28.80;94.70;;;;;;5066708;28;20064;-49
2022/08/24 11:19:58;;;;;;;3.83;1.80;;;28.70;94.60;;;;;;5073017;28;20040;-45
2022/08/24 11:22:55;;;;;;;1.50;1.33;;;28.50;95.20;;;;;;5068017;28;20026;-45
2022/08/24 11:25:26;;;;;;;3.60;1.60;;;28.20;95.50;;;;;;5073138;28;20029;-45
2022/08/24 11:28:01;;;;;;;2.33;1.40;;;28.00;95.80;;;;;;5073149;28;20028;-48
2022/08/24 11:30:28;;;;;;;2.15;1.30;;;28.40;97.60;;;;;;5073086;28;20027;-41
2022/08/24 11:33:03;;;;;;;2.40;1.13;;;28.80;94.40;;;;;;5073068;28;20518;-50
2022/08/24 11:35:32;;;;;;;3.00;1.40;;;28.70;95.00;;;;;;5072840;28;20021;-44
2022/08/24 11:38:20;;;;;;;1.77;1.05;;;28.20;95.30;;;;;;5071542;28;20036;-52
2022/08/24 11:40:55;;;;;;;3.33;1.50;;;27.90;95.90;;;;;;5072591;28;20082;-52
2022/08/24 11:43:25;;;;;;;1.30;1.20;;;28.20;95.50;;;;;;5068140;28;20024;-51
2022/08/24 11:46:10;;;;;;;1.92;1.20;;;28.10;95.40;;;;;;5072488;28;20040;-42
2022/08/24 11:49:24;;;;;;;1.55;1.23;;;28.00;96.40;;;;;;5067105;28;20382;-50
2022/08/24 11:52:01;;;;;;;1.92;1.20;;;28.40;94.40;;;;;;5029514;28;20032;-45
2022/08/24 11:54:41;;;;;;;2.58;1.45;;;28.70;96.30;;;;;;5029511;28;20040;-47
2022/08/24 11:57:18;;;;;;;3.10;1.50;;;28.70;94.80;;;;;;5055875;28;20090;-51
2022/08/24 11:59:44;;;;;;;1.45;1.00;;;28.60;95.00;;;;;;5054860;28;20033;-49
2022/08/24 12:02:21;;;;;;;1.92;1.10;;;29.10;95.30;;;;;;5068464;28;20069;-53
2022/08/24 12:05:08;;;;;;;2.58;1.10;;;29.40;94.70;;;;;;5062245;28;20043;-55
2022/08/24 12:07:44;;;;;;;2.55;1.20;;;29.10;93.10;;;;;;5058999;28;20031;-54
2022/08/24 12:10:15;;;;;;;1.27;1.17;;;28.60;94.50;;;;;;5059884;28;20024;-41
2022/08/24 12:12:45;;;;;;;1.65;1.40;;;28.20;94.80;;;;;;5057310;28;20029;-55
2022/08/24 12:15:35;;;;;;;4.22;1.95;;;27.90;95.70;;;;;;5066114;28;20064;-47
2022/08/24 12:18:15;;;;;;;3.13;1.50;;;27.70;95.30;;;;;;5070685;28;20067;-46
2022/08/24 12:20:45;;;;;;;2.83;1.23;;;27.50;96.00;;;;;;5071764;28;20029;-47
2022/08/24 12:23:22;;;;;;;1.08;0.98;;;27.50;96.40;;;;;;5071544;28;20119;-53
2022/08/24 12:26:00;;;;;;;1.80;1.13;;;27.90;95.80;;;;;;5066886;28;20079;-54
2022/08/24 12:28:35;;;;;;;3.35;1.30;;;28.10;94.60;;;;;;5071583;28;20468;-53
2022/08/24 12:31:08;;;;;;;2.63;1.25;;;27.90;95.30;;;;;;5071685;28;20070;-47
2022/08/24 12:33:36;;;;;;;3.00;1.25;;;27.90;96.40;;;;;;5070306;28;20016;-45
2022/08/24 12:36:13;;;;;;;1.80;1.00;;;28.30;95.40;;;;;;5066914;28;20025;-47
2022/08/24 12:38:46;;;;;;;2.05;1.02;;;28.70;95.50;;;;;;5069997;28;20076;-46
2022/08/24 12:41:19;;;;;;;1.40;1.17;;;28.70;95.00;;;;;;5071223;28;20452;-49
2022/08/24 12:44:12;;;;;;;2.05;1.05;;;28.70;94.40;;;;;;5070969;28;20095;-50
2022/08/24 12:46:38;;;;;;;1.17;1.02;;;28.50;95.20;;;;;;5071175;28;20056;-46
2022/08/24 12:49:16;;;;;;;2.17;1.08;;;28.80;94.90;;;;;;5071064;28;20028;-45
2022/08/24 12:52:21;;;;;;;1.48;0.95;;;28.80;94.40;;;;;;5069896;28;20480;-51
2022/08/24 12:54:50;;;;;;;1.73;0.80;;;29.10;95.30;;;;;;5071031;28;20023;-46
2022/08/24 12:57:38;;;;;;;1.30;1.00;;;29.40;93.10;;;;;;5070966;28;20057;-48
2022/08/24 13:00:18;;;;;;;2.78;1.10;;;29.00;93.10;;;;;;5071435;28;20033;-47
2022/08/24 13:02:57;;;;;;;1.90;1.00;;;29.00;93.90;;;;;;5070812;28;20024;-50
2022/08/24 13:05:24;;;;;;;1.17;0.98;;;28.80;94.00;;;;;;5070612;28;20399;-49
2022/08/24 13:07:53;;;;;;;1.73;1.00;;;28.60;94.10;;;;;;5071003;28;20024;-51
2022/08/24 13:10:25;;;;;;;2.97;1.00;;;28.10;94.00;;;;;;5071003;28;20020;-46
2022/08/24 13:13:09;;;;;;;1.10;0.90;;;27.80;95.20;;;;;;5070925;28;20039;-53
2022/08/24 13:15:34;;;;;;;2.10;1.15;;;27.50;96.10;;;;;;5065915;28;20027;-45
2022/08/24 13:18:06;;;;;;;2.08;1.05;;;27.10;95.40;;;;;;5070349;28;20028;-44
2022/08/24 13:20:37;;;;;;;2.53;0.90;;;27.00;96.50;;;;;;5070772;28;20028;-47